Time;durP1;ratioP1;P1;durP2;ratioP2;P2;SDS_P1;SDS_P2;PMS_P1;PMS_P2;Temp;Humidity;BMP_temperature;BMP_pressure;BME280_temperature;BME280_humidity;BME280_pressure;Samples;Min_cycle;Max_cycle;Signal;HPM_P1;HPM_P2
2021/01/26 00:02:10;;;;;;;10.18;1.98;;;4.20;99.90;;;;;;5012113;28;20120;-67
2021/01/26 00:04:36;;;;;;;18.38;2.55;;;4.10;99.90;;;;;;5005958;28;20088;-66
2021/01/26 00:07:01;;;;;;;14.93;1.98;;;4.10;99.90;;;;;;5005198;28;20143;-66
2021/01/26 00:09:27;;;;;;;8.55;1.27;;;4.10;99.90;;;;;;5005822;28;20042;-66
2021/01/26 00:11:52;;;;;;;11.15;1.17;;;4.20;99.90;;;;;;5008533;28;20132;-66
2021/01/26 00:14:18;;;;;;;14.30;2.05;;;4.30;99.90;;;;;;5007783;28;20032;-66
2021/01/26 00:16:43;;;;;;;13.20;1.25;;;4.30;99.90;;;;;;5006885;28;20499;-66
2021/01/26 00:19:09;;;;;;;5.63;1.52;;;4.30;99.90;;;;;;5008362;28;20034;-68
2021/01/26 00:21:34;;;;;;;10.48;1.00;;;4.40;99.90;;;;;;5004462;28;20038;-66
2021/01/26 00:24:00;;;;;;;12.32;1.42;;;4.40;99.90;;;;;;5008584;28;20033;-67
2021/01/26 00:26:25;;;;;;;12.93;2.72;;;4.40;99.90;;;;;;5006654;28;20027;-66
2021/01/26 00:28:51;;;;;;;14.32;1.38;;;4.50;99.90;;;;;;5003189;28;20081;-67
2021/01/26 00:31:17;;;;;;;18.95;2.15;;;4.40;99.90;;;;;;5008392;28;20471;-66
2021/01/26 00:33:42;;;;;;;21.73;3.20;;;4.50;99.90;;;;;;5008972;28;20053;-66
2021/01/26 00:36:08;;;;;;;15.25;2.03;;;4.50;99.90;;;;;;5007534;28;20569;-66
2021/01/26 00:38:33;;;;;;;18.05;2.78;;;4.50;99.90;;;;;;5010172;28;20485;-66
2021/01/26 00:40:59;;;;;;;18.42;2.33;;;4.60;99.90;;;;;;5013096;28;20116;-66
2021/01/26 00:43:24;;;;;;;9.95;1.45;;;4.60;99.90;;;;;;5012186;28;20037;-66
2021/01/26 00:45:50;;;;;;;10.18;1.85;;;4.60;99.90;;;;;;5009150;28;20033;-66
2021/01/26 00:48:16;;;;;;;13.65;3.30;;;4.50;99.90;;;;;;5008615;28;20414;-67
2021/01/26 00:50:42;;;;;;;7.20;0.52;;;4.40;99.90;;;;;;5011314;28;20037;-66
2021/01/26 00:53:07;;;;;;;5.97;0.50;;;4.30;99.90;;;;;;5012331;28;20092;-66
2021/01/26 00:55:33;;;;;;;7.18;0.88;;;4.20;99.90;;;;;;5009928;28;20434;-66
2021/01/26 00:57:59;;;;;;;5.57;0.38;;;4.10;99.90;;;;;;5010766;28;20097;-66
2021/01/26 01:00:32;;;;;;;5.00;1.30;;;4.10;99.90;;;;;;5011710;28;20487;-66
2021/01/26 01:02:57;;;;;;;5.03;0.40;;;4.00;99.90;;;;;;5012632;28;20449;-66
2021/01/26 01:05:23;;;;;;;4.88;0.22;;;3.90;99.90;;;;;;5012161;28;20113;-66
2021/01/26 01:07:49;;;;;;;6.20;0.20;;;3.80;99.90;;;;;;5010659;28;20398;-66
2021/01/26 01:10:19;;;;;;;2.88;0.32;;;3.70;99.90;;;;;;5012609;28;20305;-66
2021/01/26 01:12:44;;;;;;;6.55;0.43;;;3.70;99.90;;;;;;5010219;28;20057;-66
2021/01/26 01:15:11;;;;;;;1.77;0.30;;;3.60;99.90;;;;;;5013066;28;20491;-66
2021/01/26 01:17:36;;;;;;;10.98;1.30;;;3.60;99.90;;;;;;5013373;28;20044;-67
2021/01/26 01:20:05;;;;;;;8.88;0.60;;;3.60;99.90;;;;;;5020852;28;20117;-67
2021/01/26 01:22:30;;;;;;;4.35;0.47;;;3.60;99.90;;;;;;5019947;28;20030;-68
2021/01/26 01:24:56;;;;;;;3.95;1.02;;;3.70;99.90;;;;;;5015318;28;20557;-66
2021/01/26 01:27:21;;;;;;;9.88;1.73;;;3.90;99.90;;;;;;5011896;28;20511;-66
2021/01/26 01:29:47;;;;;;;7.28;0.80;;;4.00;99.90;;;;;;5011133;28;20100;-66
2021/01/26 01:32:12;;;;;;;12.75;1.48;;;4.10;99.90;;;;;;5013500;28;20376;-66
2021/01/26 01:34:38;;;;;;;18.75;2.30;;;4.10;99.90;;;;;;5009755;28;20030;-67
2021/01/26 01:37:03;;;;;;;16.05;1.88;;;4.20;99.90;;;;;;5011680;28;20041;-66
2021/01/26 01:39:29;;;;;;;16.23;1.67;;;4.10;99.90;;;;;;5011317;28;20084;-67
2021/01/26 01:41:54;;;;;;;13.20;1.20;;;4.00;99.90;;;;;;5010593;28;20095;-66
2021/01/26 01:44:20;;;;;;;14.35;1.20;;;3.90;99.90;;;;;;5011990;28;20029;-66
2021/01/26 01:46:55;;;;;;;13.32;1.80;;;3.90;99.90;;;;;;5010836;28;20524;-67
2021/01/26 01:49:27;;;;;;;13.82;2.30;;;3.90;99.90;;;;;;5011124;28;20037;-68
2021/01/26 01:51:54;;;;;;;11.23;1.67;;;4.00;99.90;;;;;;5010990;28;20026;-66
2021/01/26 01:54:28;;;;;;;9.90;0.88;;;4.10;99.90;;;;;;5011303;28;20037;-67
2021/01/26 01:57:15;;;;;;;9.27;1.33;;;4.10;99.90;;;;;;5011059;28;20061;-66
2021/01/26 01:59:47;;;;;;;6.53;0.63;;;4.10;99.90;;;;;;5008242;28;20034;-67
2021/01/26 02:02:15;;;;;;;3.30;0.50;;;4.00;99.90;;;;;;5011310;28;20037;-66
2021/01/26 02:04:41;;;;;;;8.38;1.20;;;3.90;99.90;;;;;;5010627;28;20026;-67
2021/01/26 02:07:07;;;;;;;2.88;0.20;;;3.80;99.90;;;;;;5011338;28;20183;-66
2021/01/26 02:09:39;;;;;;;5.00;0.32;;;3.70;99.90;;;;;;5010685;28;20041;-67
2021/01/26 02:12:06;;;;;;;2.10;0.22;;;3.70;99.90;;;;;;5007392;28;20046;-66
2021/01/26 02:14:38;;;;;;;2.38;0.30;;;3.60;99.90;;;;;;5009583;28;20450;-66
2021/01/26 02:17:11;;;;;;;2.70;0.43;;;3.60;99.90;;;;;;5009519;28;20037;-67
2021/01/26 02:20:04;;;;;;;8.57;0.47;;;3.50;99.90;;;;;;5006411;28;20026;-67
2021/01/26 02:22:53;;;;;;;3.10;0.45;;;3.50;99.90;;;;;;5010969;28;20121;-66
2021/01/26 02:25:40;;;;;;;8.02;0.47;;;3.40;99.90;;;;;;5008826;28;20483;-66
2021/01/26 02:28:27;;;;;;;5.65;0.65;;;3.30;99.90;;;;;;5007389;28;20041;-69
2021/01/26 02:31:13;;;;;;;5.10;0.28;;;3.40;99.90;;;;;;5009663;28;20119;-67
2021/01/26 02:33:44;;;;;;;6.40;0.30;;;3.50;99.90;;;;;;5007830;28;20037;-66
2021/01/26 02:37:07;;;;;;;8.90;0.50;;;3.60;99.90;;;;;;5011277;28;20497;-66
2021/01/26 02:39:53;;;;;;;3.92;0.73;;;3.60;99.90;;;;;;4994365;28;20090;-66
2021/01/26 02:42:32;;;;;;;5.30;0.60;;;3.50;99.90;;;;;;4994739;28;20045;-67
2021/01/26 02:45:09;;;;;;;8.73;0.40;;;3.50;99.90;;;;;;5014337;28;20030;-67
2021/01/26 02:48:12;;;;;;;9.52;1.20;;;3.40;99.90;;;;;;5006344;28;20037;-66
2021/01/26 02:50:47;;;;;;;5.75;0.70;;;3.40;99.90;;;;;;4994957;28;20491;-67
2021/01/26 02:53:56;;;;;;;6.90;1.17;;;3.40;99.90;;;;;;5010157;28;20034;-66
2021/01/26 02:56:30;;;;;;;14.68;1.48;;;3.40;99.90;;;;;;5009101;28;20038;-67
2021/01/26 02:59:12;;;;;;;12.60;1.00;;;3.40;99.90;;;;;;5010063;28;20062;-66
2021/01/26 03:01:44;;;;;;;6.93;1.20;;;3.40;99.90;;;;;;5006357;28;20117;-67
2021/01/26 03:04:19;;;;;;;12.43;1.92;;;3.40;99.90;;;;;;5009942;28;20128;-66
2021/01/26 03:06:48;;;;;;;6.72;0.60;;;3.50;99.90;;;;;;5010181;28;20038;-66
2021/01/26 03:09:26;;;;;;;12.95;1.30;;;3.50;99.90;;;;;;5009758;28;20030;-66
2021/01/26 03:11:53;;;;;;;10.45;0.93;;;3.40;99.90;;;;;;5009373;28;20133;-66
2021/01/26 03:14:29;;;;;;;4.75;1.15;;;3.50;99.90;;;;;;5010046;28;20029;-66
2021/01/26 03:17:04;;;;;;;6.97;0.77;;;3.50;99.90;;;;;;5009844;28;20042;-66
2021/01/26 03:19:33;;;;;;;3.67;0.63;;;3.60;99.90;;;;;;5005036;28;20056;-66
2021/01/26 03:22:00;;;;;;;3.42;1.13;;;3.90;99.90;;;;;;5002094;28;20034;-65
2021/01/26 03:24:31;;;;;;;7.50;0.98;;;4.00;99.90;;;;;;5009693;28;20088;-66
2021/01/26 03:26:58;;;;;;;6.53;0.65;;;3.90;99.90;;;;;;5009511;28;20029;-66
2021/01/26 03:29:29;;;;;;;4.57;0.68;;;3.90;99.90;;;;;;5009589;28;20034;-66
2021/01/26 03:31:59;;;;;;;9.65;1.92;;;3.90;99.90;;;;;;5007655;28;20034;-66
2021/01/26 03:34:26;;;;;;;3.50;0.47;;;3.90;99.90;;;;;;5009469;28;20169;-66
2021/01/26 03:36:51;;;;;;;6.32;0.75;;;3.90;99.90;;;;;;5009206;28;20061;-66
2021/01/26 03:39:17;;;;;;;5.35;0.73;;;3.70;99.90;;;;;;5009380;28;20123;-66
2021/01/26 03:41:43;;;;;;;16.40;1.13;;;3.70;99.90;;;;;;5009267;28;20499;-67
2021/01/26 03:44:13;;;;;;;12.75;1.70;;;3.60;99.90;;;;;;5009588;28;20049;-66
2021/01/26 03:46:47;;;;;;;3.57;1.00;;;3.60;99.90;;;;;;5007993;28;20038;-66
2021/01/26 03:49:18;;;;;;;13.30;1.85;;;3.50;99.90;;;;;;5009005;28;20030;-67
2021/01/26 03:52:18;;;;;;;17.30;1.50;;;3.50;99.90;;;;;;5008181;28;20045;-66
2021/01/26 03:55:01;;;;;;;12.02;2.40;;;3.50;99.90;;;;;;5007836;28;20450;-66
2021/01/26 03:57:30;;;;;;;11.95;1.77;;;3.40;99.90;;;;;;5004241;28;20132;-66
2021/01/26 04:00:04;;;;;;;12.57;1.85;;;3.40;99.90;;;;;;5017817;28;20033;-67
2021/01/26 04:02:48;;;;;;;5.70;0.75;;;3.40;99.90;;;;;;5017276;28;20033;-67
2021/01/26 04:05:22;;;;;;;18.38;1.75;;;3.40;99.90;;;;;;5014183;28;20069;-66
2021/01/26 04:08:04;;;;;;;13.73;1.63;;;3.30;99.90;;;;;;5008616;28;20414;-66
2021/01/26 04:10:37;;;;;;;6.60;1.33;;;3.40;99.90;;;;;;5005515;28;20040;-67
2021/01/26 04:13:09;;;;;;;7.22;0.50;;;3.40;99.90;;;;;;5008655;28;20057;-66
2021/01/26 04:15:50;;;;;;;10.25;1.05;;;3.40;99.90;;;;;;5008297;28;20042;-67
2021/01/26 04:18:20;;;;;;;9.90;1.23;;;3.40;99.90;;;;;;5008986;28;20116;-66
2021/01/26 04:20:48;;;;;;;4.03;0.98;;;3.50;99.90;;;;;;5008752;28;20499;-66
2021/01/26 04:23:14;;;;;;;10.68;0.68;;;3.60;99.90;;;;;;5008982;28;20034;-65
2021/01/26 04:25:43;;;;;;;8.25;0.70;;;3.90;99.90;;;;;;5007081;28;20056;-67
2021/01/26 04:28:38;;;;;;;4.93;0.75;;;4.00;99.90;;;;;;5008730;28;20033;-67
2021/01/26 04:31:06;;;;;;;3.67;0.30;;;3.90;99.90;;;;;;5002867;28;20045;-67
2021/01/26 04:33:32;;;;;;;1.23;0.30;;;3.80;99.90;;;;;;5008673;28;20030;-66
2021/01/26 04:35:58;;;;;;;5.82;0.40;;;3.80;99.90;;;;;;5008266;28;20125;-67
2021/01/26 04:38:23;;;;;;;8.38;0.52;;;3.70;99.90;;;;;;5008925;28;20030;-66
2021/01/26 04:40:53;;;;;;;8.25;0.77;;;3.50;99.90;;;;;;5008232;28;20030;-67
2021/01/26 04:43:28;;;;;;;14.43;2.25;;;3.50;99.90;;;;;;5008825;28;20033;-66
2021/01/26 04:46:06;;;;;;;5.78;0.50;;;3.40;99.90;;;;;;5004471;28;20037;-66
2021/01/26 04:48:38;;;;;;;8.88;1.02;;;3.30;99.90;;;;;;5006184;28;20026;-66
2021/01/26 04:51:16;;;;;;;15.10;1.30;;;3.30;99.90;;;;;;5008387;28;20047;-66
2021/01/26 04:53:57;;;;;;;15.60;2.47;;;3.40;99.90;;;;;;5007449;28;20030;-66
2021/01/26 04:56:40;;;;;;;8.93;0.98;;;3.60;99.90;;;;;;5004167;28;20054;-66
2021/01/26 04:59:17;;;;;;;12.07;1.40;;;3.60;99.90;;;;;;5006304;28;20042;-67
2021/01/26 05:01:54;;;;;;;16.27;2.55;;;3.60;99.90;;;;;;5008705;28;20037;-66
2021/01/26 05:04:27;;;;;;;7.25;1.55;;;3.50;99.90;;;;;;5008369;28;20064;-65
2021/01/26 05:06:58;;;;;;;15.73;1.58;;;3.50;99.90;;;;;;5005092;28;20100;-66
2021/01/26 05:09:33;;;;;;;12.93;0.60;;;3.40;99.90;;;;;;5004726;28;20032;-66
2021/01/26 05:12:01;;;;;;;7.18;1.42;;;3.40;99.90;;;;;;5005679;28;20034;-66
2021/01/26 05:14:32;;;;;;;10.90;1.08;;;3.40;99.90;;;;;;5006658;28;20038;-66
2021/01/26 05:17:23;;;;;;;9.25;0.82;;;3.50;99.90;;;;;;5008997;28;20056;-66
2021/01/26 05:20:07;;;;;;;16.33;1.33;;;3.50;99.90;;;;;;5011408;28;20061;-66
2021/01/26 05:22:49;;;;;;;15.50;1.42;;;3.60;99.90;;;;;;5014894;28;20040;-66
2021/01/26 05:25:19;;;;;;;8.95;0.93;;;3.70;99.90;;;;;;5018540;28;20555;-66
2021/01/26 05:27:45;;;;;;;9.43;1.55;;;3.80;99.90;;;;;;5011271;28;20125;-66
2021/01/26 05:30:18;;;;;;;21.25;1.42;;;3.80;99.90;;;;;;5011745;28;20030;-66
2021/01/26 05:32:45;;;;;;;13.32;1.95;;;4.00;99.90;;;;;;5010427;28;20072;-65
2021/01/26 05:35:14;;;;;;;21.60;1.77;;;4.00;99.90;;;;;;5011126;28;20478;-66
2021/01/26 05:37:40;;;;;;;10.15;1.23;;;4.00;99.90;;;;;;5010339;28;20037;-66
2021/01/26 05:40:12;;;;;;;14.07;1.85;;;4.00;99.90;;;;;;5011412;28;20038;-67
2021/01/26 05:42:38;;;;;;;23.80;2.40;;;3.90;99.90;;;;;;5008799;28;20128;-67
2021/01/26 05:45:10;;;;;;;10.38;1.88;;;4.00;99.90;;;;;;5010196;28;20033;-66
2021/01/26 05:47:40;;;;;;;12.80;1.63;;;4.00;99.90;;;;;;5009116;28;20092;-66
2021/01/26 05:50:23;;;;;;;16.88;1.52;;;3.90;99.90;;;;;;5011717;28;20096;-65
2021/01/26 05:52:48;;;;;;;4.47;0.65;;;3.90;99.90;;;;;;5011049;28;20067;-66
2021/01/26 05:55:23;;;;;;;8.43;0.95;;;4.00;99.90;;;;;;5010157;28;20546;-67
2021/01/26 05:57:50;;;;;;;17.65;2.20;;;4.00;99.90;;;;;;5009583;28;20092;-67
2021/01/26 06:00:28;;;;;;;13.18;1.63;;;4.00;99.90;;;;;;5011807;28;20368;-66
2021/01/26 06:03:19;;;;;;;7.70;1.05;;;4.10;99.90;;;;;;5011131;28;20304;-67
2021/01/26 06:06:05;;;;;;;14.65;1.95;;;4.10;99.90;;;;;;5010084;28;20128;-66
2021/01/26 06:08:33;;;;;;;11.27;1.60;;;4.10;99.90;;;;;;5011110;28;20168;-66
2021/01/26 06:10:59;;;;;;;12.27;1.17;;;4.10;99.90;;;;;;5013890;28;20030;-66
2021/01/26 06:13:31;;;;;;;5.72;1.27;;;4.10;99.90;;;;;;5011374;28;20054;-66
2021/01/26 06:16:19;;;;;;;11.43;0.75;;;4.00;99.90;;;;;;5011110;28;20037;-66
2021/01/26 06:18:59;;;;;;;10.35;1.30;;;4.00;99.90;;;;;;5014152;28;20026;-67
2021/01/26 06:21:25;;;;;;;9.18;1.80;;;4.10;99.90;;;;;;5008603;28;20117;-67
2021/01/26 06:23:52;;;;;;;5.32;0.50;;;4.10;99.90;;;;;;5012580;28;20040;-67
2021/01/26 06:26:17;;;;;;;8.75;0.77;;;4.10;99.90;;;;;;5009366;28;20026;-66
2021/01/26 06:28:56;;;;;;;8.85;0.98;;;4.20;99.90;;;;;;5013941;28;20041;-67
2021/01/26 06:31:46;;;;;;;7.57;1.23;;;4.30;99.90;;;;;;5010910;28;20034;-66
2021/01/26 06:34:40;;;;;;;16.60;1.40;;;4.30;99.90;;;;;;5016684;28;20062;-66
2021/01/26 06:37:23;;;;;;;8.82;1.67;;;4.30;99.90;;;;;;5018168;28;20469;-68
2021/01/26 06:39:58;;;;;;;5.40;1.27;;;4.20;99.90;;;;;;5015296;28;20034;-66
2021/01/26 06:42:42;;;;;;;7.63;0.68;;;4.10;99.90;;;;;;5013052;28;20121;-65
2021/01/26 06:45:19;;;;;;;11.43;1.27;;;4.00;99.90;;;;;;5011011;28;20026;-65
2021/01/26 06:48:13;;;;;;;8.05;1.10;;;4.00;99.90;;;;;;5012442;28;20058;-65
2021/01/26 06:50:59;;;;;;;7.43;0.95;;;4.00;99.90;;;;;;5012506;28;20030;-67
2021/01/26 06:53:33;;;;;;;11.88;1.05;;;4.00;99.90;;;;;;5007704;28;20082;-65
2021/01/26 06:56:05;;;;;;;3.42;0.68;;;4.00;99.90;;;;;;5011737;28;20479;-65
2021/01/26 06:58:42;;;;;;;6.43;0.98;;;4.10;99.90;;;;;;5011275;28;20038;-67
2021/01/26 07:01:29;;;;;;;8.38;0.73;;;4.10;99.90;;;;;;5012314;28;20457;-66
2021/01/26 07:04:18;;;;;;;4.25;1.00;;;4.00;99.90;;;;;;5009058;28;20121;-65
2021/01/26 07:07:20;;;;;;;12.25;1.00;;;4.00;99.90;;;;;;5012072;28;20034;-66
2021/01/26 07:10:13;;;;;;;5.47;0.65;;;4.00;99.90;;;;;;5006243;28;20495;-66
2021/01/26 07:13:06;;;;;;;9.45;0.57;;;3.90;99.90;;;;;;5009933;28;20479;-65
2021/01/26 07:15:56;;;;;;;17.35;1.77;;;3.90;99.90;;;;;;5010434;28;20048;-68
2021/01/26 07:18:51;;;;;;;6.87;0.43;;;4.00;99.90;;;;;;5008846;28;20048;-66
2021/01/26 07:21:31;;;;;;;8.20;1.30;;;3.90;99.90;;;;;;5007306;28;20049;-66
2021/01/26 07:24:27;;;;;;;7.37;0.77;;;3.90;99.90;;;;;;5007885;28;20096;-66
2021/01/26 07:27:21;;;;;;;5.53;0.98;;;3.90;99.90;;;;;;5013463;28;20416;-66
2021/01/26 07:29:59;;;;;;;5.15;0.55;;;3.80;99.90;;;;;;5003017;28;20041;-66
2021/01/26 07:32:41;;;;;;;8.90;0.88;;;3.80;99.90;;;;;;5008556;28;20030;-66
2021/01/26 07:35:16;;;;;;;14.45;1.23;;;3.80;99.90;;;;;;5010675;28;20044;-65
2021/01/26 07:37:53;;;;;;;4.47;0.45;;;3.80;99.90;;;;;;5015082;28;20127;-66
2021/01/26 07:40:22;;;;;;;7.38;0.70;;;3.70;99.90;;;;;;5007296;28;20038;-66
2021/01/26 07:43:07;;;;;;;3.13;0.43;;;3.80;99.90;;;;;;5011611;28;20050;-66
2021/01/26 07:45:55;;;;;;;3.70;0.95;;;3.80;99.90;;;;;;5011439;28;20121;-66
2021/01/26 07:48:33;;;;;;;4.95;0.60;;;3.80;99.90;;;;;;5007061;28;20602;-66
2021/01/26 07:51:04;;;;;;;5.25;0.40;;;3.80;99.90;;;;;;5009318;28;20061;-66
2021/01/26 07:53:34;;;;;;;4.95;1.15;;;3.80;99.90;;;;;;5010201;28;20092;-66
2021/01/26 07:56:17;;;;;;;2.20;0.45;;;3.80;99.90;;;;;;5014559;28;20054;-66
2021/01/26 07:58:45;;;;;;;4.13;0.47;;;3.90;99.90;;;;;;5015703;28;20042;-66
2021/01/26 08:01:13;;;;;;;4.80;0.52;;;4.00;99.90;;;;;;5015706;28;20034;-66
2021/01/26 08:03:39;;;;;;;7.60;0.82;;;3.90;99.90;;;;;;5018048;28;20026;-66
2021/01/26 08:06:05;;;;;;;6.70;0.60;;;3.90;99.90;;;;;;5011483;28;20041;-66
2021/01/26 08:08:37;;;;;;;1.98;0.20;;;3.90;99.90;;;;;;5008150;28;20033;-66
2021/01/26 08:11:07;;;;;;;1.30;0.30;;;4.00;99.90;;;;;;5009266;28;20616;-66
2021/01/26 08:13:35;;;;;;;5.18;0.73;;;4.10;99.90;;;;;;5009064;28;20561;-66
2021/01/26 08:16:17;;;;;;;2.53;0.38;;;4.10;99.90;;;;;;5008713;28;20105;-66
2021/01/26 08:18:43;;;;;;;8.70;0.50;;;4.20;99.90;;;;;;5009393;28;20034;-66
2021/01/26 08:21:29;;;;;;;3.65;0.32;;;4.30;99.90;;;;;;5009309;28;20483;-66
2021/01/26 08:24:08;;;;;;;3.90;0.60;;;4.40;99.90;;;;;;5008024;28;20041;-66
2021/01/26 08:26:34;;;;;;;4.65;0.52;;;4.60;99.90;;;;;;5007354;28;20061;-66
2021/01/26 08:29:00;;;;;;;3.65;0.30;;;4.60;99.90;;;;;;5010427;28;20045;-66
2021/01/26 08:31:32;;;;;;;4.30;0.40;;;4.70;99.90;;;;;;5009392;28;20038;-66
2021/01/26 08:34:21;;;;;;;3.35;0.45;;;4.70;99.90;;;;;;5008901;28;20495;-66
2021/01/26 08:37:06;;;;;;;7.32;2.05;;;4.70;99.90;;;;;;5001016;28;20061;-66
2021/01/26 08:39:48;;;;;;;3.13;0.20;;;4.70;99.90;;;;;;5015067;28;20122;-66
2021/01/26 08:42:42;;;;;;;9.02;0.60;;;4.60;99.90;;;;;;5007411;28;20030;-66
2021/01/26 08:45:26;;;;;;;2.60;0.30;;;4.60;99.90;;;;;;5007726;28;20030;-66
2021/01/26 08:47:56;;;;;;;6.57;0.82;;;4.60;99.90;;;;;;5009099;28;20392;-68
2021/01/26 08:50:29;;;;;;;2.15;0.73;;;4.70;99.90;;;;;;5009223;28;20033;-67
2021/01/26 08:53:15;;;;;;;3.10;0.30;;;4.70;99.90;;;;;;5010908;28;20109;-66
2021/01/26 08:55:59;;;;;;;3.85;1.20;;;4.70;99.90;;;;;;5005222;28;20057;-66
2021/01/26 08:58:39;;;;;;;10.18;1.30;;;4.80;99.90;;;;;;5008242;28;20033;-66
2021/01/26 09:01:08;;;;;;;3.90;0.73;;;4.80;99.90;;;;;;5013163;28;20038;-67
2021/01/26 09:03:35;;;;;;;1.10;0.20;;;4.90;99.90;;;;;;5012135;28;20034;-66
2021/01/26 09:06:06;;;;;;;5.25;0.60;;;4.80;99.90;;;;;;5012177;28;20041;-66
2021/01/26 09:08:40;;;;;;;8.27;0.95;;;4.90;99.90;;;;;;5013682;28;20083;-66
2021/01/26 09:11:31;;;;;;;6.18;0.75;;;4.90;99.90;;;;;;5013529;28;20406;-66
2021/01/26 09:14:11;;;;;;;2.83;0.20;;;4.90;99.90;;;;;;5011545;28;20038;-66
2021/01/26 09:16:38;;;;;;;1.98;0.52;;;5.00;99.90;;;;;;5011571;28;20057;-66
2021/01/26 09:19:21;;;;;;;4.32;0.60;;;5.10;99.90;;;;;;5020230;28;20038;-66
2021/01/26 09:21:47;;;;;;;4.22;0.40;;;5.20;99.90;;;;;;5011682;28;20054;-67
2021/01/26 09:24:20;;;;;;;4.72;0.75;;;5.20;99.90;;;;;;5015498;28;20026;-66
2021/01/26 09:26:46;;;;;;;2.78;0.57;;;5.30;99.90;;;;;;5015498;28;20507;-66
2021/01/26 09:29:23;;;;;;;1.35;0.20;;;5.40;99.90;;;;;;5016291;28;20034;-66
2021/01/26 09:31:49;;;;;;;2.92;0.50;;;5.40;99.90;;;;;;5016129;28;20029;-66
2021/01/26 09:34:21;;;;;;;4.03;0.50;;;5.40;99.90;;;;;;5011092;28;20042;-66
2021/01/26 09:36:46;;;;;;;1.40;0.20;;;5.40;99.90;;;;;;5013446;28;20042;-67
2021/01/26 09:39:13;;;;;;;2.97;0.82;;;5.50;99.90;;;;;;5012660;28;20026;-66
2021/01/26 09:41:39;;;;;;;3.85;0.63;;;5.60;99.90;;;;;;5012141;28;20114;-67
2021/01/26 09:44:17;;;;;;;8.27;0.50;;;5.50;99.90;;;;;;5011578;28;20108;-66
2021/01/26 09:46:48;;;;;;;5.25;0.55;;;5.60;99.90;;;;;;5011781;28;20042;-66
2021/01/26 09:49:29;;;;;;;2.70;0.40;;;5.60;99.90;;;;;;5012226;28;20479;-66
2021/01/26 09:52:12;;;;;;;;;;;5.60;99.90;;;;;;5012438;28;20523;-67
2021/01/26 09:54:40;;;;;;;3.45;0.20;;;5.60;99.90;;;;;;5010581;28;20358;-67
2021/01/26 09:57:10;;;;;;;4.30;0.80;;;5.70;99.90;;;;;;5011576;28;20075;-66
2021/01/26 09:59:37;;;;;;;4.88;0.32;;;5.70;99.90;;;;;;5008135;28;20038;-66
2021/01/26 10:02:13;;;;;;;6.03;1.95;;;5.70;99.90;;;;;;5010305;28;20033;-66
2021/01/26 10:04:40;;;;;;;7.50;1.50;;;5.80;99.90;;;;;;5012197;28;20041;-66
2021/01/26 10:07:07;;;;;;;3.38;0.52;;;5.80;99.90;;;;;;5010469;28;20091;-67
2021/01/26 10:09:40;;;;;;;5.15;0.63;;;5.90;99.90;;;;;;5011186;28;20053;-66
2021/01/26 10:12:27;;;;;;;8.80;1.20;;;5.90;99.90;;;;;;5014914;28;20034;-66
2021/01/26 10:15:13;;;;;;;8.80;0.60;;;5.90;99.90;;;;;;5012039;28;20037;-66
2021/01/26 10:17:45;;;;;;;9.40;0.60;;;5.80;99.90;;;;;;5004172;28;20065;-66
2021/01/26 10:20:11;;;;;;;13.27;2.65;;;5.80;99.90;;;;;;5011033;28;20041;-66
2021/01/26 10:22:37;;;;;;;7.00;1.00;;;5.80;99.90;;;;;;5010717;28;20435;-66
2021/01/26 10:25:10;;;;;;;6.22;1.00;;;5.80;99.90;;;;;;5010341;28;20034;-67
2021/01/26 10:27:38;;;;;;;2.72;0.60;;;5.90;99.90;;;;;;5008074;28;20072;-66
2021/01/26 10:30:15;;;;;;;11.15;0.90;;;6.00;99.90;;;;;;5014989;28;20036;-66
2021/01/26 10:32:47;;;;;;;5.88;0.73;;;6.20;99.90;;;;;;5010277;28;20048;-66
2021/01/26 10:35:32;;;;;;;7.07;1.00;;;6.40;99.90;;;;;;5008731;28;20121;-66
2021/01/26 10:38:27;;;;;;;4.85;0.80;;;6.60;99.90;;;;;;5009499;28;20046;-66
2021/01/26 10:41:07;;;;;;;3.05;0.65;;;6.70;99.90;;;;;;5010629;28;20044;-66
2021/01/26 10:43:32;;;;;;;4.50;0.30;;;6.80;99.90;;;;;;5005838;28;20065;-67
2021/01/26 10:45:58;;;;;;;2.65;0.30;;;6.80;99.90;;;;;;5009054;28;20666;-66
2021/01/26 10:48:37;;;;;;;4.95;0.47;;;6.70;99.90;;;;;;5010821;28;20065;-66
2021/01/26 10:51:15;;;;;;;5.22;0.32;;;6.70;99.90;;;;;;5004789;28;20038;-66
2021/01/26 10:53:48;;;;;;;3.95;0.13;;;6.80;99.90;;;;;;5013208;28;20050;-68
2021/01/26 10:56:15;;;;;;;8.48;0.45;;;6.80;99.90;;;;;;5013232;28;20034;-67
2021/01/26 10:58:42;;;;;;;1.65;0.45;;;6.80;99.90;;;;;;5020649;28;20034;-67
2021/01/26 11:01:09;;;;;;;1.38;0.17;;;6.60;99.90;;;;;;5009682;28;20026;-66
2021/01/26 11:03:35;;;;;;;1.77;0.52;;;6.50;99.90;;;;;;5010325;28;20037;-67
2021/01/26 11:06:00;;;;;;;1.65;0.20;;;6.50;99.90;;;;;;5004724;28;20029;-67
2021/01/26 11:08:26;;;;;;;2.55;0.30;;;6.50;99.90;;;;;;4995211;28;20037;-67
2021/01/26 11:10:51;;;;;;;3.35;0.47;;;6.40;99.90;;;;;;5001998;28;20068;-67
2021/01/26 11:13:17;;;;;;;2.45;0.20;;;6.30;99.90;;;;;;5004709;28;20039;-67
2021/01/26 11:15:43;;;;;;;7.25;0.30;;;6.20;99.90;;;;;;5004585;28;20042;-66
2021/01/26 11:18:09;;;;;;;0.65;0.10;;;6.20;99.90;;;;;;4999568;28;20551;-67
2021/01/26 11:20:35;;;;;;;1.65;0.10;;;6.20;99.90;;;;;;5004821;28;20034;-67
2021/01/26 11:23:00;;;;;;;1.63;0.10;;;6.30;99.90;;;;;;5004464;28;20374;-66
2021/01/26 11:25:27;;;;;;;1.27;0.28;;;6.30;99.90;;;;;;5004728;28;20029;-67
2021/01/26 11:27:53;;;;;;;2.75;0.73;;;6.30;99.90;;;;;;5001047;28;20594;-67
2021/01/26 11:30:20;;;;;;;6.28;1.23;;;6.50;99.90;;;;;;5000337;28;20064;-67
2021/01/26 11:32:46;;;;;;;0.95;0.10;;;6.50;99.90;;;;;;5002400;28;20029;-67
2021/01/26 11:35:15;;;;;;;4.03;0.32;;;6.60;99.90;;;;;;4998478;28;20546;-67
2021/01/26 11:37:40;;;;;;;1.70;0.30;;;6.60;99.90;;;;;;5005531;28;20038;-67
2021/01/26 11:40:08;;;;;;;1.70;0.45;;;6.70;99.90;;;;;;5005768;28;20033;-68
2021/01/26 11:42:34;;;;;;;4.28;0.43;;;6.80;99.90;;;;;;5007344;28;20053;-67
2021/01/26 11:45:00;;;;;;;1.60;0.40;;;6.80;99.90;;;;;;5008409;28;20044;-67
2021/01/26 11:47:25;;;;;;;2.35;0.30;;;6.80;99.90;;;;;;5007069;28;20038;-66
2021/01/26 11:49:51;;;;;;;2.10;0.57;;;6.80;99.90;;;;;;5006791;28;20125;-67
2021/01/26 11:52:16;;;;;;;5.32;0.30;;;6.70;99.90;;;;;;5007074;28;20125;-67
2021/01/26 11:54:42;;;;;;;2.75;0.20;;;6.60;99.90;;;;;;5009021;28;20049;-66
2021/01/26 11:57:07;;;;;;;2.28;0.30;;;6.50;99.90;;;;;;5008123;28;20041;-67
2021/01/26 11:59:35;;;;;;;5.70;0.65;;;6.40;99.90;;;;;;5011186;28;20121;-66
2021/01/26 12:02:01;;;;;;;2.55;0.25;;;6.30;99.90;;;;;;5007038;28;20104;-67
2021/01/26 12:04:26;;;;;;;1.55;0.63;;;6.20;99.90;;;;;;5008566;28;20513;-67
2021/01/26 12:06:52;;;;;;;0.70;0.20;;;6.30;99.90;;;;;;5008555;28;20034;-66
2021/01/26 12:09:18;;;;;;;1.65;0.20;;;6.30;99.90;;;;;;5008060;28;20152;-66
2021/01/26 12:11:44;;;;;;;3.33;0.30;;;6.30;99.90;;;;;;5008477;28;20042;-67
2021/01/26 12:14:10;;;;;;;2.60;0.65;;;6.50;99.90;;;;;;5008389;28;20145;-67
2021/01/26 12:16:35;;;;;;;2.05;0.75;;;6.60;99.90;;;;;;5013096;28;20407;-66
2021/01/26 12:19:01;;;;;;;7.15;0.40;;;6.70;99.90;;;;;;5011782;28;20407;-66
2021/01/26 12:21:26;;;;;;;1.70;0.30;;;6.80;99.90;;;;;;5008126;28;20042;-66
2021/01/26 12:23:52;;;;;;;2.78;0.43;;;6.90;99.90;;;;;;5013452;28;20038;-68
2021/01/26 12:26:18;;;;;;;3.25;0.50;;;6.90;99.90;;;;;;5017622;28;20034;-67
2021/01/26 12:28:44;;;;;;;1.23;0.35;;;7.00;99.90;;;;;;5019379;28;20041;-69
2021/01/26 12:31:10;;;;;;;4.07;0.30;;;7.00;99.90;;;;;;5018925;28;20164;-71
2021/01/26 12:33:36;;;;;;;1.80;0.30;;;7.00;99.90;;;;;;5016265;28;20057;-67
2021/01/26 12:36:02;;;;;;;7.10;0.52;;;7.00;99.90;;;;;;5016140;28;20036;-67
2021/01/26 12:38:27;;;;;;;6.90;0.73;;;7.10;99.90;;;;;;5015214;28;20045;-67
2021/01/26 12:40:53;;;;;;;3.25;0.98;;;7.20;99.90;;;;;;5018609;28;20032;-67
2021/01/26 12:43:19;;;;;;;1.48;0.40;;;7.30;99.90;;;;;;5016322;28;20450;-67
2021/01/26 12:45:44;;;;;;;8.45;0.88;;;7.40;99.90;;;;;;5014825;28;20073;-67
2021/01/26 12:48:10;;;;;;;5.03;0.70;;;7.50;99.90;;;;;;5014502;28;20491;-67
2021/01/26 12:50:37;;;;;;;4.10;0.55;;;7.50;99.90;;;;;;5014288;28;20092;-67
2021/01/26 12:53:03;;;;;;;5.45;0.80;;;7.50;99.90;;;;;;5017451;28;20029;-67
2021/01/26 12:55:30;;;;;;;4.15;0.70;;;7.60;99.90;;;;;;5019634;28;20033;-67
2021/01/26 12:57:55;;;;;;;7.28;1.45;;;7.50;99.90;;;;;;5013203;28;20042;-67
2021/01/26 13:00:23;;;;;;;10.43;1.65;;;7.40;99.90;;;;;;5015563;28;20041;-66
2021/01/26 13:02:49;;;;;;;5.07;0.70;;;7.40;99.90;;;;;;5017850;28;20030;-66
2021/01/26 13:05:16;;;;;;;12.23;1.15;;;7.40;99.90;;;;;;5017184;28;20446;-67
2021/01/26 13:07:41;;;;;;;4.47;1.10;;;7.40;99.90;;;;;;5011720;28;20458;-67
2021/01/26 13:10:08;;;;;;;4.00;0.90;;;7.40;99.90;;;;;;5014263;28;20045;-66
2021/01/26 13:12:34;;;;;;;10.18;1.00;;;7.30;99.90;;;;;;5015009;28;20042;-67
2021/01/26 13:15:00;;;;;;;7.57;1.65;;;7.30;99.90;;;;;;5018596;28;20125;-67
2021/01/26 13:17:25;;;;;;;4.35;0.75;;;7.30;99.90;;;;;;5015093;28;20057;-65
2021/01/26 13:19:51;;;;;;;6.25;1.50;;;7.30;99.90;;;;;;5014209;28;20026;-66
2021/01/26 13:22:17;;;;;;;9.32;2.20;;;7.40;99.90;;;;;;5013216;28;20034;-65
2021/01/26 13:24:45;;;;;;;10.85;2.67;;;7.50;99.90;;;;;;5016344;28;20445;-65